sensor_id;sensor_type;location;lat;lon;timestamp;P1;durP1;ratioP1;P2;durP2;ratioP2
22480;SDS011;11407;56.964;-2.212;2023-04-10T00:02:21;48.33;;;22.23;;
22480;SDS011;11407;56.964;-2.212;2023-04-10T00:04:46;47.97;;;22.57;;
22480;SDS011;11407;56.964;-2.212;2023-04-10T00:07:11;55.27;;;22.80;;
22480;SDS011;11407;56.964;-2.212;2023-04-10T00:09:36;59.07;;;25.40;;
22480;SDS011;11407;56.964;-2.212;2023-04-10T00:12:02;56.50;;;25.43;;
22480;SDS011;11407;56.964;-2.212;2023-04-10T00:14:28;54.70;;;25.67;;
22480;SDS011;11407;56.964;-2.212;2023-04-10T00:16:53;55.50;;;24.37;;
22480;SDS011;11407;56.964;-2.212;2023-04-10T00:19:18;48.53;;;24.43;;
22480;SDS011;11407;56.964;-2.212;2023-04-10T00:21:43;51.30;;;25.27;;
22480;SDS011;11407;56.964;-2.212;2023-04-10T00:24:09;57.10;;;23.67;;
22480;SDS011;11407;56.964;-2.212;2023-04-10T00:26:34;60.30;;;27.13;;
22480;SDS011;11407;56.964;-2.212;2023-04-10T00:28:59;54.23;;;22.70;;
22480;SDS011;11407;56.964;-2.212;2023-04-10T00:31:25;54.63;;;25.00;;
22480;SDS011;11407;56.964;-2.212;2023-04-10T00:33:50;55.07;;;25.93;;
22480;SDS011;11407;56.964;-2.212;2023-04-10T00:36:16;53.43;;;23.93;;
22480;SDS011;11407;56.964;-2.212;2023-04-10T00:38:42;60.13;;;25.70;;
22480;SDS011;11407;56.964;-2.212;2023-04-10T00:41:07;54.50;;;24.57;;
22480;SDS011;11407;56.964;-2.212;2023-04-10T00:43:32;70.80;;;29.00;;
22480;SDS011;11407;56.964;-2.212;2023-04-10T00:45:58;66.60;;;28.00;;
22480;SDS011;11407;56.964;-2.212;2023-04-10T00:48:23;66.00;;;29.47;;
22480;SDS011;11407;56.964;-2.212;2023-04-10T00:50:49;56.17;;;25.97;;
22480;SDS011;11407;56.964;-2.212;2023-04-10T00:53:15;60.23;;;28.10;;
22480;SDS011;11407;56.964;-2.212;2023-04-10T00:55:40;68.23;;;28.90;;
22480;SDS011;11407;56.964;-2.212;2023-04-10T00:58:06;60.27;;;27.33;;
22480;SDS011;11407;56.964;-2.212;2023-04-10T01:00:31;64.57;;;28.13;;
22480;SDS011;11407;56.964;-2.212;2023-04-10T01:02:56;65.10;;;27.57;;
22480;SDS011;11407;56.964;-2.212;2023-04-10T01:05:22;71.97;;;30.17;;
22480;SDS011;11407;56.964;-2.212;2023-04-10T01:15:25;70.47;;;31.37;;
22480;SDS011;11407;56.964;-2.212;2023-04-10T01:17:56;65.53;;;28.80;;
22480;SDS011;11407;56.964;-2.212;2023-04-10T01:20:26;80.27;;;31.33;;
22480;SDS011;11407;56.964;-2.212;2023-04-10T01:25:39;73.90;;;31.37;;
22480;SDS011;11407;56.964;-2.212;2023-04-10T01:30:43;80.90;;;31.53;;
22480;SDS011;11407;56.964;-2.212;2023-04-10T01:33:11;73.33;;;29.90;;
22480;SDS011;11407;56.964;-2.212;2023-04-10T01:35:37;79.50;;;30.93;;
22480;SDS011;11407;56.964;-2.212;2023-04-10T01:38:03;73.60;;;30.33;;
22480;SDS011;11407;56.964;-2.212;2023-04-10T01:40:29;77.33;;;31.37;;
22480;SDS011;11407;56.964;-2.212;2023-04-10T01:42:55;76.47;;;31.50;;
22480;SDS011;11407;56.964;-2.212;2023-04-10T01:45:22;75.47;;;31.00;;
22480;SDS011;11407;56.964;-2.212;2023-04-10T01:47:49;72.47;;;30.47;;
22480;SDS011;11407;56.964;-2.212;2023-04-10T01:50:15;78.20;;;32.80;;
22480;SDS011;11407;56.964;-2.212;2023-04-10T01:52:40;73.03;;;31.07;;
22480;SDS011;11407;56.964;-2.212;2023-04-10T01:55:06;78.17;;;31.50;;
22480;SDS011;11407;56.964;-2.212;2023-04-10T01:57:32;70.63;;;28.67;;
22480;SDS011;11407;56.964;-2.212;2023-04-10T02:00:00;66.43;;;29.47;;
22480;SDS011;11407;56.964;-2.212;2023-04-10T02:02:28;62.30;;;29.20;;
22480;SDS011;11407;56.964;-2.212;2023-04-10T02:04:54;81.77;;;31.20;;
22480;SDS011;11407;56.964;-2.212;2023-04-10T02:12:21;74.20;;;31.03;;
22480;SDS011;11407;56.964;-2.212;2023-04-10T02:14:48;73.83;;;29.93;;
22480;SDS011;11407;56.964;-2.212;2023-04-10T02:17:13;77.57;;;31.63;;
22480;SDS011;11407;56.964;-2.212;2023-04-10T02:19:40;70.17;;;29.07;;
22480;SDS011;11407;56.964;-2.212;2023-04-10T02:22:05;74.13;;;30.27;;
22480;SDS011;11407;56.964;-2.212;2023-04-10T02:24:30;70.23;;;29.97;;
22480;SDS011;11407;56.964;-2.212;2023-04-10T02:26:56;74.63;;;29.37;;
22480;SDS011;11407;56.964;-2.212;2023-04-10T02:29:21;66.77;;;28.37;;
22480;SDS011;11407;56.964;-2.212;2023-04-10T02:31:47;70.80;;;29.83;;
22480;SDS011;11407;56.964;-2.212;2023-04-10T02:34:12;74.70;;;27.90;;
22480;SDS011;11407;56.964;-2.212;2023-04-10T02:36:38;72.53;;;30.93;;
22480;SDS011;11407;56.964;-2.212;2023-04-10T02:39:04;81.77;;;31.27;;
22480;SDS011;11407;56.964;-2.212;2023-04-10T02:41:29;67.73;;;28.50;;
22480;SDS011;11407;56.964;-2.212;2023-04-10T02:43:55;80.57;;;30.10;;
22480;SDS011;11407;56.964;-2.212;2023-04-10T02:46:20;64.33;;;28.87;;
22480;SDS011;11407;56.964;-2.212;2023-04-10T02:48:45;67.90;;;28.63;;
22480;SDS011;11407;56.964;-2.212;2023-04-10T02:51:11;65.77;;;28.13;;
22480;SDS011;11407;56.964;-2.212;2023-04-10T02:53:36;64.33;;;27.87;;
22480;SDS011;11407;56.964;-2.212;2023-04-10T02:56:02;64.60;;;26.67;;
22480;SDS011;11407;56.964;-2.212;2023-04-10T02:58:27;65.60;;;26.73;;
22480;SDS011;11407;56.964;-2.212;2023-04-10T03:00:54;70.90;;;27.93;;
22480;SDS011;11407;56.964;-2.212;2023-04-10T03:03:20;69.50;;;29.87;;
22480;SDS011;11407;56.964;-2.212;2023-04-10T03:05:45;66.77;;;28.77;;
22480;SDS011;11407;56.964;-2.212;2023-04-10T03:08:12;64.47;;;27.87;;
22480;SDS011;11407;56.964;-2.212;2023-04-10T03:10:38;57.03;;;26.83;;
22480;SDS011;11407;56.964;-2.212;2023-04-10T03:13:03;64.97;;;26.30;;
22480;SDS011;11407;56.964;-2.212;2023-04-10T03:15:28;62.23;;;26.93;;
22480;SDS011;11407;56.964;-2.212;2023-04-10T03:17:53;68.10;;;28.33;;
22480;SDS011;11407;56.964;-2.212;2023-04-10T03:20:19;64.67;;;28.77;;
22480;SDS011;11407;56.964;-2.212;2023-04-10T03:22:44;67.30;;;28.80;;
22480;SDS011;11407;56.964;-2.212;2023-04-10T03:25:09;64.77;;;28.30;;
22480;SDS011;11407;56.964;-2.212;2023-04-10T03:27:34;64.40;;;28.20;;
22480;SDS011;11407;56.964;-2.212;2023-04-10T03:30:00;62.27;;;27.63;;
22480;SDS011;11407;56.964;-2.212;2023-04-10T03:32:26;62.77;;;27.43;;
22480;SDS011;11407;56.964;-2.212;2023-04-10T03:34:55;63.17;;;26.13;;
22480;SDS011;11407;56.964;-2.212;2023-04-10T03:37:20;52.33;;;24.47;;
22480;SDS011;11407;56.964;-2.212;2023-04-10T03:39:45;72.70;;;28.63;;
22480;SDS011;11407;56.964;-2.212;2023-04-10T03:42:11;60.47;;;26.07;;
22480;SDS011;11407;56.964;-2.212;2023-04-10T03:44:36;60.30;;;27.40;;
22480;SDS011;11407;56.964;-2.212;2023-04-10T03:47:01;60.27;;;26.80;;
22480;SDS011;11407;56.964;-2.212;2023-04-10T03:49:27;62.40;;;26.00;;
22480;SDS011;11407;56.964;-2.212;2023-04-10T03:51:52;66.60;;;27.03;;
22480;SDS011;11407;56.964;-2.212;2023-04-10T03:54:17;59.93;;;25.80;;
22480;SDS011;11407;56.964;-2.212;2023-04-10T03:56:42;54.00;;;26.70;;
22480;SDS011;11407;56.964;-2.212;2023-04-10T03:59:08;58.80;;;26.97;;
22480;SDS011;11407;56.964;-2.212;2023-04-10T04:01:33;60.87;;;27.40;;
22480;SDS011;11407;56.964;-2.212;2023-04-10T04:03:58;62.80;;;27.27;;
22480;SDS011;11407;56.964;-2.212;2023-04-10T04:06:23;68.50;;;29.07;;
22480;SDS011;11407;56.964;-2.212;2023-04-10T04:08:49;65.37;;;29.43;;
22480;SDS011;11407;56.964;-2.212;2023-04-10T04:11:14;65.70;;;29.33;;
22480;SDS011;11407;56.964;-2.212;2023-04-10T04:13:40;73.63;;;32.43;;
22480;SDS011;11407;56.964;-2.212;2023-04-10T04:16:05;64.80;;;29.30;;
22480;SDS011;11407;56.964;-2.212;2023-04-10T04:18:30;62.60;;;28.13;;
22480;SDS011;11407;56.964;-2.212;2023-04-10T04:20:56;64.50;;;28.03;;
22480;SDS011;11407;56.964;-2.212;2023-04-10T04:23:21;58.23;;;27.03;;
22480;SDS011;11407;56.964;-2.212;2023-04-10T04:25:46;61.03;;;27.57;;
22480;SDS011;11407;56.964;-2.212;2023-04-10T04:28:11;58.97;;;27.73;;
22480;SDS011;11407;56.964;-2.212;2023-04-10T04:30:39;60.17;;;27.00;;
22480;SDS011;11407;56.964;-2.212;2023-04-10T04:33:05;62.50;;;26.27;;
22480;SDS011;11407;56.964;-2.212;2023-04-10T04:35:30;53.30;;;26.20;;
22480;SDS011;11407;56.964;-2.212;2023-04-10T04:37:55;59.40;;;25.97;;
22480;SDS011;11407;56.964;-2.212;2023-04-10T04:40:21;60.53;;;26.90;;
22480;SDS011;11407;56.964;-2.212;2023-04-10T04:42:46;59.67;;;25.70;;
22480;SDS011;11407;56.964;-2.212;2023-04-10T04:45:11;62.53;;;27.27;;
22480;SDS011;11407;56.964;-2.212;2023-04-10T04:47:36;62.00;;;25.13;;
22480;SDS011;11407;56.964;-2.212;2023-04-10T04:50:02;66.20;;;27.03;;
22480;SDS011;11407;56.964;-2.212;2023-04-10T04:52:27;54.53;;;25.23;;
22480;SDS011;11407;56.964;-2.212;2023-04-10T04:54:52;55.47;;;25.80;;
22480;SDS011;11407;56.964;-2.212;2023-04-10T04:57:18;62.67;;;25.17;;
22480;SDS011;11407;56.964;-2.212;2023-04-10T04:59:43;54.80;;;25.10;;
22480;SDS011;11407;56.964;-2.212;2023-04-10T05:02:08;51.63;;;24.73;;
22480;SDS011;11407;56.964;-2.212;2023-04-10T05:04:34;60.97;;;26.37;;
22480;SDS011;11407;56.964;-2.212;2023-04-10T05:06:59;59.47;;;26.33;;
22480;SDS011;11407;56.964;-2.212;2023-04-10T05:09:24;58.43;;;26.37;;
22480;SDS011;11407;56.964;-2.212;2023-04-10T05:11:50;52.07;;;24.30;;
22480;SDS011;11407;56.964;-2.212;2023-04-10T05:14:15;61.07;;;26.50;;
22480;SDS011;11407;56.964;-2.212;2023-04-10T05:16:41;55.37;;;24.53;;
22480;SDS011;11407;56.964;-2.212;2023-04-10T05:19:06;62.17;;;25.70;;
22480;SDS011;11407;56.964;-2.212;2023-04-10T05:21:31;57.00;;;26.67;;
22480;SDS011;11407;56.964;-2.212;2023-04-10T05:23:56;58.63;;;25.97;;
22480;SDS011;11407;56.964;-2.212;2023-04-10T05:26:22;54.37;;;25.03;;
22480;SDS011;11407;56.964;-2.212;2023-04-10T05:28:47;64.03;;;25.90;;
22480;SDS011;11407;56.964;-2.212;2023-04-10T05:31:12;52.17;;;25.67;;
22480;SDS011;11407;56.964;-2.212;2023-04-10T05:33:37;60.90;;;26.60;;
22480;SDS011;11407;56.964;-2.212;2023-04-10T05:36:03;54.47;;;24.53;;
22480;SDS011;11407;56.964;-2.212;2023-04-10T05:38:28;60.77;;;23.80;;
22480;SDS011;11407;56.964;-2.212;2023-04-10T05:40:53;52.63;;;24.07;;
22480;SDS011;11407;56.964;-2.212;2023-04-10T05:43:19;53.17;;;23.00;;
22480;SDS011;11407;56.964;-2.212;2023-04-10T05:45:45;56.80;;;25.63;;
22480;SDS011;11407;56.964;-2.212;2023-04-10T05:48:11;55.57;;;23.43;;
22480;SDS011;11407;56.964;-2.212;2023-04-10T05:50:36;50.83;;;23.43;;
22480;SDS011;11407;56.964;-2.212;2023-04-10T05:53:01;54.63;;;23.30;;
22480;SDS011;11407;56.964;-2.212;2023-04-10T05:55:29;53.73;;;24.13;;
22480;SDS011;11407;56.964;-2.212;2023-04-10T05:57:54;47.33;;;20.93;;
22480;SDS011;11407;56.964;-2.212;2023-04-10T06:00:20;51.87;;;22.10;;
22480;SDS011;11407;56.964;-2.212;2023-04-10T06:02:45;51.90;;;21.23;;
22480;SDS011;11407;56.964;-2.212;2023-04-10T06:05:10;43.00;;;20.50;;
22480;SDS011;11407;56.964;-2.212;2023-04-10T06:07:36;50.47;;;20.67;;
22480;SDS011;11407;56.964;-2.212;2023-04-10T06:10:01;43.10;;;19.43;;
22480;SDS011;11407;56.964;-2.212;2023-04-10T06:12:26;35.60;;;19.07;;
22480;SDS011;11407;56.964;-2.212;2023-04-10T06:14:52;44.57;;;18.23;;
22480;SDS011;11407;56.964;-2.212;2023-04-10T06:17:17;40.23;;;18.80;;
22480;SDS011;11407;56.964;-2.212;2023-04-10T06:19:45;36.00;;;17.40;;
22480;SDS011;11407;56.964;-2.212;2023-04-10T06:22:10;36.10;;;17.37;;
22480;SDS011;11407;56.964;-2.212;2023-04-10T06:24:35;39.83;;;17.77;;
22480;SDS011;11407;56.964;-2.212;2023-04-10T06:27:01;35.33;;;15.37;;
22480;SDS011;11407;56.964;-2.212;2023-04-10T06:29:26;37.97;;;16.90;;
22480;SDS011;11407;56.964;-2.212;2023-04-10T06:31:51;42.07;;;16.60;;
22480;SDS011;11407;56.964;-2.212;2023-04-10T06:34:16;39.63;;;16.43;;
22480;SDS011;11407;56.964;-2.212;2023-04-10T06:36:42;39.70;;;15.80;;
22480;SDS011;11407;56.964;-2.212;2023-04-10T06:39:07;34.27;;;15.67;;
22480;SDS011;11407;56.964;-2.212;2023-04-10T06:41:32;36.23;;;15.27;;
22480;SDS011;11407;56.964;-2.212;2023-04-10T06:43:57;29.77;;;13.73;;
22480;SDS011;11407;56.964;-2.212;2023-04-10T06:46:23;26.13;;;12.90;;
22480;SDS011;11407;56.964;-2.212;2023-04-10T06:48:48;27.80;;;12.53;;
22480;SDS011;11407;56.964;-2.212;2023-04-10T06:51:13;31.77;;;13.10;;
22480;SDS011;11407;56.964;-2.212;2023-04-10T06:53:39;25.80;;;13.70;;
22480;SDS011;11407;56.964;-2.212;2023-04-10T06:56:04;25.90;;;12.97;;
22480;SDS011;11407;56.964;-2.212;2023-04-10T06:58:31;28.73;;;12.70;;
22480;SDS011;11407;56.964;-2.212;2023-04-10T07:00:56;30.33;;;13.50;;
22480;SDS011;11407;56.964;-2.212;2023-04-10T07:03:22;27.03;;;11.77;;
22480;SDS011;11407;56.964;-2.212;2023-04-10T07:05:49;19.13;;;11.27;;
22480;SDS011;11407;56.964;-2.212;2023-04-10T07:08:14;23.90;;;10.40;;
22480;SDS011;11407;56.964;-2.212;2023-04-10T07:10:40;20.53;;;9.93;;
22480;SDS011;11407;56.964;-2.212;2023-04-10T07:13:05;19.43;;;9.67;;
22480;SDS011;11407;56.964;-2.212;2023-04-10T07:15:30;19.97;;;9.60;;
22480;SDS011;11407;56.964;-2.212;2023-04-10T07:17:56;24.27;;;9.40;;
22480;SDS011;11407;56.964;-2.212;2023-04-10T07:20:21;19.87;;;8.77;;
22480;SDS011;11407;56.964;-2.212;2023-04-10T07:22:46;19.10;;;8.60;;
22480;SDS011;11407;56.964;-2.212;2023-04-10T07:25:12;20.40;;;7.53;;
22480;SDS011;11407;56.964;-2.212;2023-04-10T07:27:38;19.13;;;7.67;;
22480;SDS011;11407;56.964;-2.212;2023-04-10T07:30:03;16.43;;;7.23;;
22480;SDS011;11407;56.964;-2.212;2023-04-10T07:32:29;15.20;;;6.40;;
22480;SDS011;11407;56.964;-2.212;2023-04-10T07:34:54;15.50;;;6.17;;
22480;SDS011;11407;56.964;-2.212;2023-04-10T07:37:19;7.80;;;3.70;;
22480;SDS011;11407;56.964;-2.212;2023-04-10T07:39:44;11.27;;;3.40;;
22480;SDS011;11407;56.964;-2.212;2023-04-10T07:42:10;7.30;;;3.47;;
22480;SDS011;11407;56.964;-2.212;2023-04-10T07:44:35;6.93;;;3.13;;
22480;SDS011;11407;56.964;-2.212;2023-04-10T07:47:01;5.20;;;3.10;;
22480;SDS011;11407;56.964;-2.212;2023-04-10T07:49:26;7.83;;;2.57;;
22480;SDS011;11407;56.964;-2.212;2023-04-10T07:51:52;7.00;;;2.70;;
22480;SDS011;11407;56.964;-2.212;2023-04-10T07:54:17;4.47;;;2.70;;
22480;SDS011;11407;56.964;-2.212;2023-04-10T07:56:42;3.83;;;2.10;;
22480;SDS011;11407;56.964;-2.212;2023-04-10T07:59:07;5.17;;;1.80;;
22480;SDS011;11407;56.964;-2.212;2023-04-10T08:01:33;4.67;;;1.83;;
22480;SDS011;11407;56.964;-2.212;2023-04-10T08:03:58;2.43;;;1.60;;
22480;SDS011;11407;56.964;-2.212;2023-04-10T08:06:23;2.23;;;1.60;;
22480;SDS011;11407;56.964;-2.212;2023-04-10T08:08:49;2.93;;;1.30;;
22480;SDS011;11407;56.964;-2.212;2023-04-10T08:11:25;3.90;;;1.67;;
22480;SDS011;11407;56.964;-2.212;2023-04-10T08:13:55;3.03;;;1.60;;
22480;SDS011;11407;56.964;-2.212;2023-04-10T08:16:22;2.10;;;1.40;;
22480;SDS011;11407;56.964;-2.212;2023-04-10T08:18:47;1.57;;;1.30;;
22480;SDS011;11407;56.964;-2.212;2023-04-10T08:21:12;6.30;;;1.60;;
22480;SDS011;11407;56.964;-2.212;2023-04-10T08:23:38;4.90;;;1.40;;
22480;SDS011;11407;56.964;-2.212;2023-04-10T08:26:03;2.37;;;1.30;;
22480;SDS011;11407;56.964;-2.212;2023-04-10T08:28:29;8.50;;;1.90;;
22480;SDS011;11407;56.964;-2.212;2023-04-10T08:30:56;2.47;;;1.50;;
22480;SDS011;11407;56.964;-2.212;2023-04-10T08:33:21;3.17;;;1.37;;
22480;SDS011;11407;56.964;-2.212;2023-04-10T08:35:46;7.23;;;1.80;;
22480;SDS011;11407;56.964;-2.212;2023-04-10T08:38:13;3.73;;;1.90;;
22480;SDS011;11407;56.964;-2.212;2023-04-10T08:40:38;4.83;;;1.77;;
22480;SDS011;11407;56.964;-2.212;2023-04-10T08:43:03;4.57;;;1.57;;
22480;SDS011;11407;56.964;-2.212;2023-04-10T08:45:29;5.20;;;1.50;;
22480;SDS011;11407;56.964;-2.212;2023-04-10T08:47:54;4.57;;;1.50;;
22480;SDS011;11407;56.964;-2.212;2023-04-10T08:50:21;5.23;;;1.40;;
22480;SDS011;11407;56.964;-2.212;2023-04-10T08:52:47;3.63;;;1.37;;
22480;SDS011;11407;56.964;-2.212;2023-04-10T08:55:13;2.33;;;1.10;;
22480;SDS011;11407;56.964;-2.212;2023-04-10T08:57:39;3.77;;;1.20;;
22480;SDS011;11407;56.964;-2.212;2023-04-10T09:00:05;4.50;;;1.27;;
22480;SDS011;11407;56.964;-2.212;2023-04-10T09:02:31;2.40;;;1.10;;
22480;SDS011;11407;56.964;-2.212;2023-04-10T09:04:56;2.27;;;0.90;;
22480;SDS011;11407;56.964;-2.212;2023-04-10T09:07:24;2.20;;;0.90;;
22480;SDS011;11407;56.964;-2.212;2023-04-10T09:09:50;2.63;;;1.20;;
22480;SDS011;11407;56.964;-2.212;2023-04-10T09:12:15;2.60;;;0.90;;
22480;SDS011;11407;56.964;-2.212;2023-04-10T09:14:41;3.40;;;1.00;;
22480;SDS011;11407;56.964;-2.212;2023-04-10T09:17:10;2.43;;;1.20;;
22480;SDS011;11407;56.964;-2.212;2023-04-10T09:19:36;1.90;;;1.20;;
22480;SDS011;11407;56.964;-2.212;2023-04-10T09:22:01;2.50;;;0.83;;
22480;SDS011;11407;56.964;-2.212;2023-04-10T09:24:26;2.80;;;1.00;;
22480;SDS011;11407;56.964;-2.212;2023-04-10T09:26:52;3.13;;;1.00;;
22480;SDS011;11407;56.964;-2.212;2023-04-10T09:29:17;3.50;;;1.03;;
22480;SDS011;11407;56.964;-2.212;2023-04-10T09:31:43;1.97;;;0.83;;
22480;SDS011;11407;56.964;-2.212;2023-04-10T09:34:21;1.67;;;0.80;;
22480;SDS011;11407;56.964;-2.212;2023-04-10T09:36:56;2.07;;;0.70;;
22480;SDS011;11407;56.964;-2.212;2023-04-10T09:39:29;2.57;;;0.90;;
22480;SDS011;11407;56.964;-2.212;2023-04-10T09:41:56;1.20;;;0.70;;
22480;SDS011;11407;56.964;-2.212;2023-04-10T09:46:54;1.63;;;1.00;;
22480;SDS011;11407;56.964;-2.212;2023-04-10T09:49:19;1.30;;;0.80;;
22480;SDS011;11407;56.964;-2.212;2023-04-10T09:51:44;1.93;;;0.80;;
22480;SDS011;11407;56.964;-2.212;2023-04-10T09:54:11;3.17;;;0.80;;
22480;SDS011;11407;56.964;-2.212;2023-04-10T09:56:37;2.80;;;0.80;;
22480;SDS011;11407;56.964;-2.212;2023-04-10T09:59:03;1.23;;;0.77;;
22480;SDS011;11407;56.964;-2.212;2023-04-10T10:01:30;2.13;;;0.90;;
22480;SDS011;11407;56.964;-2.212;2023-04-10T10:04:01;2.27;;;0.93;;
22480;SDS011;11407;56.964;-2.212;2023-04-10T10:06:28;2.93;;;1.03;;
22480;SDS011;11407;56.964;-2.212;2023-04-10T10:08:55;3.03;;;0.80;;
22480;SDS011;11407;56.964;-2.212;2023-04-10T10:11:22;2.87;;;0.90;;
22480;SDS011;11407;56.964;-2.212;2023-04-10T10:13:49;4.20;;;0.90;;
22480;SDS011;11407;56.964;-2.212;2023-04-10T10:16:19;1.43;;;0.80;;
22480;SDS011;11407;56.964;-2.212;2023-04-10T10:18:57;4.27;;;1.00;;
22480;SDS011;11407;56.964;-2.212;2023-04-10T10:21:25;0.80;;;0.67;;
22480;SDS011;11407;56.964;-2.212;2023-04-10T10:23:52;1.13;;;0.60;;
22480;SDS011;11407;56.964;-2.212;2023-04-10T10:26:19;3.07;;;0.87;;
22480;SDS011;11407;56.964;-2.212;2023-04-10T10:28:45;1.27;;;0.50;;
22480;SDS011;11407;56.964;-2.212;2023-04-10T10:31:10;2.40;;;0.80;;
22480;SDS011;11407;56.964;-2.212;2023-04-10T10:33:36;2.63;;;0.77;;
22480;SDS011;11407;56.964;-2.212;2023-04-10T10:36:02;1.27;;;0.73;;
22480;SDS011;11407;56.964;-2.212;2023-04-10T10:38:29;3.27;;;0.87;;
22480;SDS011;11407;56.964;-2.212;2023-04-10T10:41:01;2.10;;;0.70;;
22480;SDS011;11407;56.964;-2.212;2023-04-10T10:46:20;1.40;;;0.63;;
22480;SDS011;11407;56.964;-2.212;2023-04-10T10:48:54;1.90;;;0.70;;
22480;SDS011;11407;56.964;-2.212;2023-04-10T10:51:19;1.83;;;0.70;;
22480;SDS011;11407;56.964;-2.212;2023-04-10T10:53:45;1.70;;;0.70;;
22480;SDS011;11407;56.964;-2.212;2023-04-10T10:58:48;2.93;;;0.80;;
22480;SDS011;11407;56.964;-2.212;2023-04-10T11:01:13;2.07;;;0.77;;
22480;SDS011;11407;56.964;-2.212;2023-04-10T11:03:39;1.73;;;0.70;;
22480;SDS011;11407;56.964;-2.212;2023-04-10T11:06:06;2.93;;;0.67;;
22480;SDS011;11407;56.964;-2.212;2023-04-10T11:13:30;0.67;;;0.60;;
22480;SDS011;11407;56.964;-2.212;2023-04-10T11:15:55;3.53;;;0.80;;
22480;SDS011;11407;56.964;-2.212;2023-04-10T11:19:00;2.33;;;0.60;;
22480;SDS011;11407;56.964;-2.212;2023-04-10T11:21:09;3.47;;;0.70;;
22480;SDS011;11407;56.964;-2.212;2023-04-10T11:23:36;2.30;;;0.70;;
22480;SDS011;11407;56.964;-2.212;2023-04-10T11:26:01;4.80;;;0.90;;
22480;SDS011;11407;56.964;-2.212;2023-04-10T11:28:36;3.57;;;1.00;;
22480;SDS011;11407;56.964;-2.212;2023-04-10T11:33:46;2.07;;;1.03;;
22480;SDS011;11407;56.964;-2.212;2023-04-10T11:36:13;2.50;;;0.80;;
22480;SDS011;11407;56.964;-2.212;2023-04-10T11:38:38;2.27;;;0.90;;
22480;SDS011;11407;56.964;-2.212;2023-04-10T11:41:04;4.27;;;0.80;;
22480;SDS011;11407;56.964;-2.212;2023-04-10T11:43:30;2.30;;;0.80;;
22480;SDS011;11407;56.964;-2.212;2023-04-10T11:46:03;1.03;;;0.70;;
22480;SDS011;11407;56.964;-2.212;2023-04-10T11:48:28;2.07;;;0.80;;
22480;SDS011;11407;56.964;-2.212;2023-04-10T11:50:54;2.67;;;0.80;;
22480;SDS011;11407;56.964;-2.212;2023-04-10T11:53:20;2.27;;;0.80;;
22480;SDS011;11407;56.964;-2.212;2023-04-10T11:55:45;1.67;;;0.70;;
22480;SDS011;11407;56.964;-2.212;2023-04-10T11:58:23;3.23;;;0.73;;
22480;SDS011;11407;56.964;-2.212;2023-04-10T12:01:02;1.27;;;0.60;;
22480;SDS011;11407;56.964;-2.212;2023-04-10T12:03:42;2.13;;;0.80;;
22480;SDS011;11407;56.964;-2.212;2023-04-10T12:06:09;2.13;;;0.60;;
22480;SDS011;11407;56.964;-2.212;2023-04-10T12:08:35;1.73;;;0.63;;
22480;SDS011;11407;56.964;-2.212;2023-04-10T12:11:01;2.10;;;0.63;;
22480;SDS011;11407;56.964;-2.212;2023-04-10T12:13:27;0.57;;;0.40;;
22480;SDS011;11407;56.964;-2.212;2023-04-10T12:15:53;1.67;;;0.60;;
22480;SDS011;11407;56.964;-2.212;2023-04-10T12:18:21;0.73;;;0.60;;
22480;SDS011;11407;56.964;-2.212;2023-04-10T12:20:47;2.43;;;0.60;;
22480;SDS011;11407;56.964;-2.212;2023-04-10T12:23:13;1.67;;;0.77;;
22480;SDS011;11407;56.964;-2.212;2023-04-10T12:25:38;1.17;;;0.60;;
22480;SDS011;11407;56.964;-2.212;2023-04-10T12:28:03;0.93;;;0.60;;
22480;SDS011;11407;56.964;-2.212;2023-04-10T12:30:29;1.83;;;0.70;;
22480;SDS011;11407;56.964;-2.212;2023-04-10T12:32:54;1.13;;;0.60;;
22480;SDS011;11407;56.964;-2.212;2023-04-10T12:35:35;3.30;;;0.80;;
22480;SDS011;11407;56.964;-2.212;2023-04-10T12:38:01;1.43;;;0.70;;
22480;SDS011;11407;56.964;-2.212;2023-04-10T12:40:26;1.37;;;0.70;;
22480;SDS011;11407;56.964;-2.212;2023-04-10T12:42:51;1.60;;;0.73;;
22480;SDS011;11407;56.964;-2.212;2023-04-10T12:45:17;0.97;;;0.40;;
22480;SDS011;11407;56.964;-2.212;2023-04-10T12:47:43;0.93;;;0.70;;
22480;SDS011;11407;56.964;-2.212;2023-04-10T12:50:14;3.20;;;0.70;;
22480;SDS011;11407;56.964;-2.212;2023-04-10T12:52:41;2.77;;;0.83;;
22480;SDS011;11407;56.964;-2.212;2023-04-10T12:55:10;2.33;;;1.00;;
22480;SDS011;11407;56.964;-2.212;2023-04-10T12:57:36;2.17;;;1.00;;
22480;SDS011;11407;56.964;-2.212;2023-04-10T13:00:03;1.90;;;1.00;;
22480;SDS011;11407;56.964;-2.212;2023-04-10T13:02:28;2.73;;;0.93;;
22480;SDS011;11407;56.964;-2.212;2023-04-10T13:04:54;1.90;;;1.30;;
22480;SDS011;11407;56.964;-2.212;2023-04-10T13:07:19;2.57;;;0.90;;
22480;SDS011;11407;56.964;-2.212;2023-04-10T13:09:44;0.60;;;0.57;;
22480;SDS011;11407;56.964;-2.212;2023-04-10T13:12:10;3.20;;;0.70;;
22480;SDS011;11407;56.964;-2.212;2023-04-10T13:14:35;0.60;;;0.60;;
22480;SDS011;11407;56.964;-2.212;2023-04-10T13:17:01;2.07;;;0.70;;
22480;SDS011;11407;56.964;-2.212;2023-04-10T13:19:26;0.90;;;0.70;;
22480;SDS011;11407;56.964;-2.212;2023-04-10T13:21:51;0.60;;;0.60;;
22480;SDS011;11407;56.964;-2.212;2023-04-10T13:24:17;0.90;;;0.70;;
22480;SDS011;11407;56.964;-2.212;2023-04-10T13:26:42;1.57;;;0.80;;
22480;SDS011;11407;56.964;-2.212;2023-04-10T13:29:07;1.03;;;0.60;;
22480;SDS011;11407;56.964;-2.212;2023-04-10T13:31:32;1.10;;;0.60;;
22480;SDS011;11407;56.964;-2.212;2023-04-10T13:33:58;1.07;;;0.60;;
22480;SDS011;11407;56.964;-2.212;2023-04-10T13:36:23;1.50;;;0.60;;
22480;SDS011;11407;56.964;-2.212;2023-04-10T13:38:48;2.50;;;0.63;;
22480;SDS011;11407;56.964;-2.212;2023-04-10T13:41:13;0.77;;;0.57;;
22480;SDS011;11407;56.964;-2.212;2023-04-10T13:43:39;3.00;;;0.80;;
22480;SDS011;11407;56.964;-2.212;2023-04-10T13:46:04;1.90;;;0.90;;
22480;SDS011;11407;56.964;-2.212;2023-04-10T13:48:29;1.00;;;0.70;;
22480;SDS011;11407;56.964;-2.212;2023-04-10T13:50:55;1.97;;;0.80;;
22480;SDS011;11407;56.964;-2.212;2023-04-10T13:53:20;0.60;;;0.60;;
22480;SDS011;11407;56.964;-2.212;2023-04-10T13:55:46;0.90;;;0.60;;
22480;SDS011;11407;56.964;-2.212;2023-04-10T13:58:12;1.10;;;0.80;;
22480;SDS011;11407;56.964;-2.212;2023-04-10T14:00:38;2.67;;;0.90;;
22480;SDS011;11407;56.964;-2.212;2023-04-10T14:03:04;1.53;;;1.03;;
22480;SDS011;11407;56.964;-2.212;2023-04-10T14:05:29;1.57;;;0.80;;
22480;SDS011;11407;56.964;-2.212;2023-04-10T14:07:55;1.07;;;0.90;;
22480;SDS011;11407;56.964;-2.212;2023-04-10T14:10:21;1.47;;;0.70;;
22480;SDS011;11407;56.964;-2.212;2023-04-10T14:12:46;1.03;;;0.70;;
22480;SDS011;11407;56.964;-2.212;2023-04-10T14:15:12;2.33;;;0.83;;
22480;SDS011;11407;56.964;-2.212;2023-04-10T14:17:37;2.60;;;0.87;;
22480;SDS011;11407;56.964;-2.212;2023-04-10T14:20:02;1.30;;;0.70;;
22480;SDS011;11407;56.964;-2.212;2023-04-10T14:22:27;1.93;;;0.90;;
22480;SDS011;11407;56.964;-2.212;2023-04-10T14:24:54;1.77;;;0.90;;
22480;SDS011;11407;56.964;-2.212;2023-04-10T14:27:19;2.63;;;1.10;;
22480;SDS011;11407;56.964;-2.212;2023-04-10T14:29:44;1.87;;;1.00;;
22480;SDS011;11407;56.964;-2.212;2023-04-10T14:32:10;2.77;;;0.80;;
22480;SDS011;11407;56.964;-2.212;2023-04-10T14:34:35;0.70;;;0.60;;
22480;SDS011;11407;56.964;-2.212;2023-04-10T14:37:00;1.47;;;0.93;;
22480;SDS011;11407;56.964;-2.212;2023-04-10T14:39:26;1.13;;;0.70;;
22480;SDS011;11407;56.964;-2.212;2023-04-10T14:41:51;1.67;;;0.83;;
22480;SDS011;11407;56.964;-2.212;2023-04-10T14:44:17;1.53;;;0.70;;
22480;SDS011;11407;56.964;-2.212;2023-04-10T14:46:42;2.27;;;0.77;;
22480;SDS011;11407;56.964;-2.212;2023-04-10T14:49:08;2.33;;;1.00;;